Time;durP1;ratioP1;P1;durP2;ratioP2;P2;SDS_P1;SDS_P2;PMS_P1;PMS_P2;Temp;Humidity;BMP_temperature;BMP_pressure;BME280_temperature;BME280_humidity;BME280_pressure;Samples;Min_cycle;Max_cycle;Signal;HPM_P1;HPM_P2
2022/04/14 00:02:01;;;;;;;10.33;5.57;;;15.00;99.90;;;;;;5015658;28;20536;-72
2022/04/14 00:04:28;;;;;;;6.00;4.43;;;15.20;99.90;;;;;;5009074;28;20531;-73
2022/04/14 00:06:55;;;;;;;7.70;4.83;;;15.50;99.90;;;;;;5012811;28;20777;-72
2022/04/14 00:09:22;;;;;;;6.47;4.30;;;15.60;99.90;;;;;;5018389;28;21050;-73
2022/04/14 00:11:48;;;;;;;9.43;5.13;;;15.80;99.90;;;;;;5013743;28;20944;-73
2022/04/14 00:14:15;;;;;;;11.60;5.20;;;15.80;99.90;;;;;;5012909;28;20475;-73
2022/04/14 00:16:42;;;;;;;7.77;5.50;;;15.90;99.90;;;;;;5025316;28;20940;-72
2022/04/14 00:19:08;;;;;;;11.03;6.70;;;15.80;99.90;;;;;;5023755;28;20973;-73
2022/04/14 00:21:36;;;;;;;8.67;5.50;;;15.90;99.90;;;;;;5012700;28;20471;-72
2022/04/14 00:24:03;;;;;;;10.07;5.47;;;15.50;99.90;;;;;;5014473;28;20432;-72
2022/04/14 00:26:30;;;;;;;5.30;4.40;;;15.50;99.90;;;;;;5009530;28;20542;-72
2022/04/14 00:28:58;;;;;;;9.80;5.00;;;15.50;99.90;;;;;;5000655;28;21146;-71
2022/04/14 00:31:25;;;;;;;5.00;4.20;;;15.50;99.90;;;;;;5015517;28;20984;-74
2022/04/14 00:33:51;;;;;;;6.80;4.27;;;15.60;99.90;;;;;;5026708;28;20460;-72
2022/04/14 00:36:18;;;;;;;9.70;6.00;;;15.60;99.90;;;;;;5022481;28;20479;-75
2022/04/14 00:38:46;;;;;;;6.63;4.60;;;15.60;99.90;;;;;;5012134;28;20480;-74
2022/04/14 00:41:13;;;;;;;13.77;5.90;;;15.60;99.90;;;;;;5025335;28;20460;-71
2022/04/14 00:43:40;;;;;;;7.27;4.70;;;15.60;99.90;;;;;;5013210;28;21155;-72
2022/04/14 00:46:06;;;;;;;6.70;5.60;;;15.70;99.90;;;;;;5022342;28;20448;-72
2022/04/14 00:48:34;;;;;;;12.13;6.57;;;15.70;99.90;;;;;;5013264;28;20475;-74
2022/04/14 00:51:01;;;;;;;11.60;7.37;;;15.60;99.90;;;;;;5011500;28;21057;-73
2022/04/14 00:53:28;;;;;;;11.27;6.57;;;15.50;99.90;;;;;;5009098;28;20488;-73
2022/04/14 00:55:56;;;;;;;11.10;6.23;;;15.50;99.90;;;;;;5021750;28;20467;-73
2022/04/14 00:58:23;;;;;;;9.80;6.13;;;15.50;99.90;;;;;;5023187;28;20460;-74
2022/04/14 01:00:49;;;;;;;9.83;6.87;;;15.60;99.90;;;;;;5026757;28;20460;-74
2022/04/14 01:03:17;;;;;;;10.53;6.43;;;15.60;99.90;;;;;;5009892;28;20470;-74
2022/04/14 01:05:45;;;;;;;10.83;6.30;;;15.60;99.90;;;;;;5023452;28;20468;-73
2022/04/14 01:08:16;;;;;;;8.33;6.17;;;15.60;99.90;;;;;;5022548;28;21280;-74
2022/04/14 01:10:47;;;;;;;13.27;6.60;;;15.60;99.90;;;;;;5006836;28;20476;-73
2022/04/14 01:13:15;;;;;;;11.60;6.13;;;15.40;99.90;;;;;;5015392;28;21197;-73
2022/04/14 01:15:42;;;;;;;12.03;6.60;;;15.50;99.90;;;;;;5029422;28;20909;-72
2022/04/14 01:18:09;;;;;;;9.73;6.47;;;15.50;99.90;;;;;;5021696;28;20495;-73
2022/04/14 01:20:36;;;;;;;8.83;5.60;;;15.40;99.90;;;;;;5027078;28;20462;-73
2022/04/14 01:23:04;;;;;;;13.07;5.83;;;15.40;99.90;;;;;;5014113;28;20578;-73
2022/04/14 01:25:34;;;;;;;11.27;6.37;;;15.40;99.90;;;;;;5012476;28;20518;-73
2022/04/14 01:28:01;;;;;;;8.00;4.70;;;15.30;99.90;;;;;;5006034;28;20491;-73
2022/04/14 01:30:28;;;;;;;5.80;3.50;;;15.30;99.90;;;;;;5015152;28;21142;-73
2022/04/14 01:32:55;;;;;;;11.53;4.13;;;15.00;99.90;;;;;;5022691;28;20456;-73
2022/04/14 01:35:22;;;;;;;5.50;4.40;;;14.70;99.90;;;;;;5006406;28;20475;-73
2022/04/14 01:37:49;;;;;;;8.03;5.30;;;14.50;99.90;;;;;;5014708;28;20514;-73
2022/04/14 01:40:16;;;;;;;11.37;6.70;;;14.60;99.90;;;;;;5005356;28;20547;-73
2022/04/14 01:42:44;;;;;;;8.27;5.23;;;14.80;99.90;;;;;;5002828;28;20461;-73
2022/04/14 01:45:12;;;;;;;10.33;5.80;;;15.00;99.90;;;;;;5009857;28;20464;-73
2022/04/14 01:47:40;;;;;;;9.83;5.80;;;15.10;99.90;;;;;;5020041;28;20479;-73
2022/04/14 01:50:09;;;;;;;8.60;5.67;;;15.20;99.90;;;;;;5018174;28;21036;-73
2022/04/14 01:52:36;;;;;;;8.70;5.80;;;15.30;99.90;;;;;;5012205;28;20438;-73
2022/04/14 01:55:02;;;;;;;11.63;6.60;;;15.20;99.90;;;;;;5014990;28;20472;-72
2022/04/14 01:57:29;;;;;;;11.63;5.87;;;15.10;99.90;;;;;;5015695;28;21136;-72
2022/04/14 01:59:58;;;;;;;11.80;7.13;;;15.00;99.90;;;;;;5014462;28;20811;-71
2022/04/14 02:02:24;;;;;;;6.97;4.90;;;15.00;99.90;;;;;;5017254;28;20526;-72
2022/04/14 02:04:51;;;;;;;12.90;6.37;;;14.90;99.90;;;;;;5014019;28;20483;-74
2022/04/14 02:07:18;;;;;;;9.73;4.90;;;14.80;99.90;;;;;;5023820;28;20487;-73
2022/04/14 02:09:45;;;;;;;9.60;5.77;;;14.70;99.90;;;;;;4994794;28;20559;-73
2022/04/14 02:12:12;;;;;;;9.67;5.63;;;14.80;99.90;;;;;;5009069;28;20961;-72
2022/04/14 02:14:39;;;;;;;12.40;4.77;;;14.70;99.90;;;;;;5007903;28;20493;-72
2022/04/14 02:17:07;;;;;;;11.83;4.77;;;14.70;99.90;;;;;;4998018;28;20484;-72
2022/04/14 02:19:34;;;;;;;11.80;6.63;;;14.60;99.90;;;;;;5015444;28;20480;-73
2022/04/14 02:22:00;;;;;;;9.37;5.17;;;14.60;99.90;;;;;;5011074;28;21194;-72
2022/04/14 02:24:28;;;;;;;7.60;4.77;;;14.60;99.90;;;;;;5013711;28;20680;-75
2022/04/14 02:26:55;;;;;;;7.77;4.53;;;14.60;99.90;;;;;;5013068;28;20975;-73
2022/04/14 02:29:22;;;;;;;11.43;5.50;;;14.60;99.90;;;;;;5016192;28;20495;-73
2022/04/14 02:31:48;;;;;;;9.53;5.43;;;14.60;99.90;;;;;;5017229;28;20520;-72
2022/04/14 02:34:16;;;;;;;5.60;5.03;;;14.70;99.90;;;;;;5007140;28;20691;-72
2022/04/14 02:36:43;;;;;;;7.80;4.10;;;14.70;99.90;;;;;;5016792;28;21105;-72
2022/04/14 02:39:10;;;;;;;7.57;4.50;;;14.80;99.90;;;;;;5016404;28;21225;-73
2022/04/14 02:41:37;;;;;;;9.27;4.73;;;14.80;99.90;;;;;;5008721;28;20956;-73
2022/04/14 02:44:04;;;;;;;8.63;7.00;;;14.80;99.90;;;;;;5016055;28;20554;-73
2022/04/14 02:46:30;;;;;;;7.57;4.00;;;14.90;99.90;;;;;;5011096;28;20475;-72
2022/04/14 02:48:57;;;;;;;5.90;4.43;;;14.90;99.90;;;;;;5012188;28;20566;-72
2022/04/14 02:51:25;;;;;;;4.83;3.43;;;14.80;99.90;;;;;;5010184;28;20535;-73
2022/04/14 02:53:53;;;;;;;7.07;5.10;;;14.80;99.90;;;;;;5010855;28;21292;-72
2022/04/14 02:56:19;;;;;;;6.30;4.80;;;14.50;99.90;;;;;;4999579;28;20483;-74
2022/04/14 02:58:47;;;;;;;7.70;4.47;;;14.40;99.90;;;;;;5016103;28;20464;-73
2022/04/14 03:01:13;;;;;;;9.03;4.70;;;14.60;99.90;;;;;;5021536;28;20453;-72
2022/04/14 03:03:41;;;;;;;7.07;4.73;;;14.60;99.90;;;;;;5013313;28;20491;-73
2022/04/14 03:06:08;;;;;;;5.70;4.00;;;14.70;99.90;;;;;;5010697;28;20776;-72
2022/04/14 03:08:36;;;;;;;6.87;5.17;;;14.80;99.90;;;;;;5014175;28;20458;-73
2022/04/14 03:11:03;;;;;;;7.73;4.87;;;14.80;99.90;;;;;;5025493;28;20471;-72
2022/04/14 03:13:30;;;;;;;16.43;5.97;;;14.80;99.90;;;;;;5010277;28;21392;-73
2022/04/14 03:15:57;;;;;;;7.90;5.20;;;14.80;99.90;;;;;;5017634;28;20555;-71
2022/04/14 03:18:23;;;;;;;9.60;5.30;;;14.70;99.90;;;;;;5026211;28;20546;-72
2022/04/14 03:20:50;;;;;;;12.53;5.40;;;14.70;99.90;;;;;;5018100;28;20562;-73
2022/04/14 03:23:16;;;;;;;7.77;5.27;;;14.80;99.90;;;;;;5023235;28;21255;-73
2022/04/14 03:25:45;;;;;;;9.90;5.47;;;14.80;99.90;;;;;;5020815;28;20456;-74
2022/04/14 03:28:12;;;;;;;8.33;5.97;;;14.90;99.90;;;;;;5031046;28;20475;-74
2022/04/14 03:30:38;;;;;;;6.13;5.53;;;14.90;99.90;;;;;;5024578;28;20458;-73
2022/04/14 03:33:05;;;;;;;10.30;5.67;;;14.80;99.90;;;;;;5020732;28;20463;-72
2022/04/14 03:35:32;;;;;;;8.90;6.70;;;14.70;99.90;;;;;;5020490;28;20465;-73
2022/04/14 03:38:01;;;;;;;8.97;5.90;;;14.70;99.90;;;;;;5025101;28;20695;-73
2022/04/14 03:40:27;;;;;;;8.70;6.03;;;14.60;99.90;;;;;;5005261;28;20913;-73
2022/04/14 03:42:56;;;;;;;13.00;6.23;;;14.60;99.90;;;;;;5019169;28;20968;-73
2022/04/14 03:45:23;;;;;;;10.10;6.60;;;14.40;99.90;;;;;;5013099;28;20462;-73
2022/04/14 03:47:49;;;;;;;10.73;5.20;;;14.50;99.90;;;;;;5029404;28;20494;-74
2022/04/14 03:50:16;;;;;;;17.20;7.40;;;14.50;99.90;;;;;;5017090;28;20480;-74
2022/04/14 03:52:42;;;;;;;10.67;8.83;;;14.60;99.90;;;;;;5022600;28;20495;-73
2022/04/14 03:55:10;;;;;;;8.23;5.20;;;14.60;99.90;;;;;;5010882;28;20525;-73
2022/04/14 03:57:37;;;;;;;12.40;6.73;;;14.30;99.90;;;;;;5027013;28;20488;-73
2022/04/14 04:00:06;;;;;;;8.90;5.60;;;14.00;99.90;;;;;;5010453;28;20599;-73
2022/04/14 04:02:35;;;;;;;13.80;8.17;;;14.10;99.90;;;;;;5024750;28;20489;-73
2022/04/14 04:05:02;;;;;;;9.27;6.00;;;14.20;99.90;;;;;;5024113;28;20455;-74
2022/04/14 04:07:28;;;;;;;14.90;6.83;;;14.20;99.90;;;;;;5019512;28;20859;-73
2022/04/14 04:09:59;;;;;;;14.50;8.10;;;14.10;99.90;;;;;;5025382;28;20533;-75
2022/04/14 04:12:25;;;;;;;12.07;7.23;;;14.20;99.90;;;;;;5017677;28;21371;-74
2022/04/14 04:14:54;;;;;;;10.63;7.93;;;14.20;99.90;;;;;;5002594;28;20972;-73
2022/04/14 04:17:22;;;;;;;13.10;8.20;;;14.20;99.90;;;;;;5019564;28;22568;-73
2022/04/14 04:19:49;;;;;;;10.83;7.50;;;14.20;99.90;;;;;;5021185;28;20452;-74
2022/04/14 04:22:15;;;;;;;14.80;7.90;;;14.10;99.90;;;;;;5014990;28;20459;-74
2022/04/14 04:24:42;;;;;;;12.53;7.93;;;14.00;99.90;;;;;;5008952;28;20537;-74
2022/04/14 04:27:09;;;;;;;11.97;7.37;;;14.20;99.90;;;;;;5020384;28;20556;-74
2022/04/14 04:29:36;;;;;;;11.87;7.63;;;14.20;99.90;;;;;;5025512;28;20600;-74
2022/04/14 04:32:02;;;;;;;14.37;7.40;;;14.40;99.90;;;;;;5027904;28;20506;-74
2022/04/14 04:34:30;;;;;;;12.60;7.40;;;14.40;99.90;;;;;;5022297;28;21130;-74
2022/04/14 04:36:57;;;;;;;18.20;9.13;;;14.50;99.90;;;;;;5020364;28;20537;-75
2022/04/14 04:39:24;;;;;;;17.10;10.53;;;14.50;99.90;;;;;;5026708;28;20801;-74
2022/04/14 04:41:50;;;;;;;19.37;10.10;;;14.40;99.90;;;;;;5025628;28;20491;-74
2022/04/14 04:44:17;;;;;;;16.80;8.67;;;14.40;99.90;;;;;;5017865;28;20460;-75
2022/04/14 04:46:44;;;;;;;15.57;9.03;;;14.50;99.90;;;;;;5018915;28;20795;-74
2022/04/14 04:49:10;;;;;;;13.10;8.43;;;14.40;99.90;;;;;;5010321;28;20760;-74
2022/04/14 04:51:39;;;;;;;11.63;7.77;;;14.30;99.90;;;;;;5027409;28;20452;-73
2022/04/14 04:54:05;;;;;;;12.30;8.37;;;14.30;99.90;;;;;;5037427;28;20437;-74
2022/04/14 04:56:32;;;;;;;17.00;9.20;;;14.30;99.90;;;;;;5035854;28;20479;-74
2022/04/14 04:58:59;;;;;;;13.60;8.60;;;14.30;99.90;;;;;;5033715;28;20964;-74
2022/04/14 05:01:26;;;;;;;18.80;9.80;;;14.20;99.90;;;;;;5034122;28;20467;-74
2022/04/14 05:03:52;;;;;;;16.37;9.83;;;14.10;99.90;;;;;;5035279;28;20538;-73
2022/04/14 05:06:19;;;;;;;12.10;8.60;;;14.10;99.90;;;;;;5037223;28;20462;-73
2022/04/14 05:08:47;;;;;;;15.07;10.43;;;14.10;99.90;;;;;;5027456;28;20484;-73
2022/04/14 05:11:14;;;;;;;13.80;9.20;;;14.20;99.90;;;;;;5038091;28;20476;-73
2022/04/14 05:13:41;;;;;;;16.73;10.13;;;14.20;99.90;;;;;;5034507;28;20469;-73
2022/04/14 05:16:09;;;;;;;13.70;11.00;;;14.20;99.90;;;;;;5035324;28;20455;-74
2022/04/14 05:18:35;;;;;;;16.50;9.27;;;14.20;99.90;;;;;;5035214;28;20496;-73
2022/04/14 05:21:02;;;;;;;18.27;9.83;;;14.20;99.90;;;;;;5043746;28;20458;-73
2022/04/14 05:23:29;;;;;;;15.40;9.27;;;14.20;99.90;;;;;;5029600;28;20466;-74
2022/04/14 05:25:57;;;;;;;19.77;9.90;;;14.30;99.90;;;;;;5040509;28;20426;-73
2022/04/14 05:28:23;;;;;;;14.47;9.70;;;14.30;99.90;;;;;;5033207;28;20430;-73
2022/04/14 05:30:51;;;;;;;19.90;11.13;;;14.10;99.90;;;;;;5030804;28;20906;-73
2022/04/14 05:33:17;;;;;;;16.47;9.33;;;14.10;99.90;;;;;;5029714;28;20594;-73
2022/04/14 05:35:46;;;;;;;16.67;11.20;;;13.90;99.90;;;;;;5042562;28;20596;-72
2022/04/14 05:38:13;;;;;;;21.57;10.73;;;13.90;99.90;;;;;;5040051;22;20590;-72
2022/04/14 05:40:41;;;;;;;18.37;9.73;;;14.00;99.90;;;;;;5012986;28;20626;-72
2022/04/14 05:43:14;;;;;;;20.67;11.37;;;14.20;99.90;;;;;;5008894;28;20495;-72
2022/04/14 05:45:44;;;;;;;20.33;12.90;;;14.30;99.90;;;;;;4988836;28;20472;-72
2022/04/14 05:48:12;;;;;;;20.13;11.50;;;14.30;99.90;;;;;;4993430;28;20488;-72
2022/04/14 05:50:43;;;;;;;23.40;11.50;;;14.40;99.90;;;;;;4982564;28;20623;-72
2022/04/14 05:53:12;;;;;;;23.77;11.03;;;14.40;99.90;;;;;;4999152;28;20484;-72
2022/04/14 05:55:41;;;;;;;16.50;10.40;;;14.50;99.90;;;;;;4986194;28;20472;-72
2022/04/14 05:58:10;;;;;;;19.27;12.13;;;14.50;99.90;;;;;;4991335;28;20687;-73
2022/04/14 06:00:37;;;;;;;17.87;11.97;;;14.40;99.90;;;;;;4996869;28;20814;-72
2022/04/14 06:03:04;;;;;;;13.77;11.70;;;14.30;99.90;;;;;;4997780;28;20456;-72
2022/04/14 06:05:32;;;;;;;17.03;12.40;;;14.40;99.90;;;;;;4994657;28;21119;-72
2022/04/14 06:07:59;;;;;;;18.87;12.40;;;14.60;99.90;;;;;;5006188;28;20477;-72
2022/04/14 06:10:27;;;;;;;19.03;11.87;;;14.60;99.90;;;;;;5000273;28;20489;-72
2022/04/14 06:12:55;;;;;;;17.90;11.10;;;14.60;99.90;;;;;;4988108;28;20466;-72
2022/04/14 07:03:57;;;;;;;29.60;13.80;;;15.00;99.90;;;;;;4952351;28;20461;-73
2022/04/14 07:06:23;;;;;;;36.07;14.70;;;15.20;99.90;;;;;;4997486;28;20499;-73
2022/04/14 07:08:50;;;;;;;28.60;15.60;;;15.40;99.90;;;;;;5004724;28;20436;-73
2022/04/14 07:11:17;;;;;;;36.73;17.30;;;15.60;99.90;;;;;;5006406;28;20472;-74
2022/04/14 07:13:49;;;;;;;35.80;16.90;;;15.80;99.90;;;;;;4988581;28;20464;-74
2022/04/14 07:16:17;;;;;;;31.87;17.27;;;16.00;99.90;;;;;;4998740;28;21010;-72
2022/04/14 07:18:44;;;;;;;36.33;18.37;;;16.00;99.90;;;;;;4986955;28;20483;-73
2022/04/14 07:21:13;;;;;;;25.50;14.77;;;15.90;99.90;;;;;;5000876;28;20547;-72
2022/04/14 07:23:40;;;;;;;32.80;17.43;;;16.00;99.90;;;;;;5005332;28;20461;-73
2022/04/14 07:26:07;;;;;;;32.13;16.90;;;16.10;99.90;;;;;;4998946;28;20479;-72
2022/04/14 07:28:34;;;;;;;26.67;15.90;;;16.00;99.90;;;;;;5009141;28;20456;-72
2022/04/14 07:31:01;;;;;;;24.30;14.80;;;15.90;99.90;;;;;;4994164;28;20475;-71
2022/04/14 07:33:30;;;;;;;31.60;16.43;;;16.00;99.90;;;;;;5039335;22;21058;-74
2022/04/14 07:35:56;;;;;;;35.80;16.63;;;16.00;99.90;;;;;;5018533;28;20539;-72
2022/04/14 07:38:23;;;;;;;34.93;18.27;;;15.70;99.90;;;;;;5026638;28;20455;-72
2022/04/14 07:40:50;;;;;;;45.70;20.60;;;15.70;99.90;;;;;;5025239;28;20893;-72
2022/04/14 07:43:16;;;;;;;39.77;18.27;;;15.90;99.90;;;;;;5018447;28;20463;-73
2022/04/14 07:45:43;;;;;;;39.03;20.63;;;15.90;99.90;;;;;;5002282;28;20527;-73
2022/04/14 07:48:10;;;;;;;37.20;19.07;;;15.90;99.90;;;;;;5001695;28;20470;-72
2022/04/14 07:50:38;;;;;;;36.90;20.37;;;15.90;99.90;;;;;;5002673;28;20453;-73
2022/04/14 07:53:05;;;;;;;43.10;20.37;;;15.80;99.90;;;;;;5001715;28;20457;-72
2022/04/14 07:55:33;;;;;;;41.20;19.37;;;15.60;99.90;;;;;;5003353;28;20528;-73
2022/04/14 07:58:02;;;;;;;41.83;19.73;;;15.70;99.90;;;;;;4997781;28;20464;-73
2022/04/14 08:00:29;;;;;;;43.53;23.90;;;15.70;99.90;;;;;;5001493;28;20456;-73
2022/04/14 08:02:58;;;;;;;44.93;21.90;;;15.60;99.90;;;;;;4993346;28;20468;-72
2022/04/14 08:05:29;;;;;;;36.17;19.03;;;15.60;99.90;;;;;;4997504;28;20483;-72
2022/04/14 08:07:57;;;;;;;45.87;21.27;;;15.60;99.90;;;;;;4989971;28;20450;-73
2022/04/14 08:10:24;;;;;;;44.47;20.30;;;15.90;99.90;;;;;;4979347;28;20704;-72
2022/04/14 08:12:50;;;;;;;40.87;19.80;;;16.20;99.90;;;;;;4992859;28;20466;-72
2022/04/14 08:15:17;;;;;;;47.77;24.20;;;16.70;99.90;;;;;;4988614;28;20551;-73
2022/04/14 08:17:45;;;;;;;59.13;24.83;;;17.10;99.90;;;;;;4998214;28;20480;-73
2022/04/14 08:20:13;;;;;;;50.83;24.90;;;17.20;99.90;;;;;;4991236;28;20993;-72
2022/04/14 08:22:50;;;;;;;49.30;26.13;;;17.20;99.90;;;;;;4993082;28;20535;-73
2022/04/14 08:25:20;;;;;;;50.13;25.30;;;17.20;99.90;;;;;;4996188;28;20485;-74
2022/04/14 08:27:47;;;;;;;42.57;22.10;;;17.00;99.90;;;;;;4996479;28;21074;-73
2022/04/14 08:30:15;;;;;;;44.43;22.20;;;17.50;99.90;;;;;;4996544;28;20595;-74
2022/04/14 08:32:42;;;;;;;45.03;20.97;;;18.00;99.90;;;;;;4992770;28;20458;-74
2022/04/14 08:35:09;;;;;;;48.30;23.87;;;18.30;99.90;;;;;;4994296;28;20492;-73
2022/04/14 08:37:36;;;;;;;45.47;23.17;;;18.30;99.90;;;;;;4989825;28;20519;-74
2022/04/14 08:40:05;;;;;;;50.20;24.50;;;18.40;99.90;;;;;;4991222;28;20681;-74
2022/04/14 08:42:39;;;;;;;55.07;28.43;;;19.00;99.90;;;;;;4981676;28;21070;-74
2022/04/14 08:45:07;;;;;;;50.93;26.23;;;18.90;99.90;;;;;;4985785;28;20517;-73
2022/04/14 08:47:36;;;;;;;50.37;24.70;;;19.50;99.90;;;;;;4990705;28;20486;-74
2022/04/14 08:50:03;;;;;;;41.53;24.40;;;20.00;99.90;;;;;;4994852;28;20457;-74
2022/04/14 08:52:34;;;;;;;41.90;24.00;;;20.20;99.90;;;;;;4996149;28;20854;-74
2022/04/14 08:55:04;;;;;;;45.50;24.03;;;20.20;99.90;;;;;;4991287;28;20666;-74
2022/04/14 08:57:35;;;;;;;39.43;23.20;;;20.40;99.90;;;;;;4998579;28;20512;-74
2022/04/14 09:00:03;;;;;;;36.97;23.87;;;20.90;99.90;;;;;;4985760;28;21024;-73
2022/04/14 09:02:31;;;;;;;34.63;20.83;;;20.90;99.90;;;;;;4993386;28;20470;-74
2022/04/14 09:04:59;;;;;;;40.30;24.30;;;20.50;99.90;;;;;;4995550;28;20547;-74
2022/04/14 09:07:27;;;;;;;41.20;20.93;;;20.40;99.90;;;;;;4991403;28;20683;-74
2022/04/14 09:09:54;;;;;;;36.53;23.03;;;19.90;99.90;;;;;;4989019;28;20477;-74
2022/04/14 09:12:20;;;;;;;34.70;20.37;;;19.60;99.90;;;;;;4989800;28;20830;-74
2022/04/14 09:14:49;;;;;;;35.87;21.77;;;20.40;99.90;;;;;;4992549;28;20790;-75
2022/04/14 09:17:16;;;;;;;36.37;20.83;;;22.00;99.90;;;;;;4988626;28;20907;-74
2022/04/14 09:19:43;;;;;;;37.00;21.23;;;22.70;99.90;;;;;;4989573;28;20461;-73
2022/04/14 09:22:11;;;;;;;30.10;18.73;;;23.60;99.90;;;;;;5000172;28;20485;-75
2022/04/14 09:24:42;;;;;;;35.10;20.83;;;24.50;99.90;;;;;;4994694;28;20819;-75
2022/04/14 09:27:10;;;;;;;31.77;19.87;;;24.30;99.90;;;;;;4993291;28;20489;-74
2022/04/14 09:29:48;;;;;;;27.97;18.70;;;24.50;99.90;;;;;;4992292;28;20470;-74
2022/04/14 09:32:37;;;;;;;25.50;15.83;;;25.20;99.90;;;;;;4991834;28;22028;-75
2022/04/14 09:35:06;;;;;;;20.97;14.80;;;25.80;99.90;;;;;;4992540;28;20571;-75
2022/04/14 09:37:34;;;;;;;17.47;13.37;;;25.60;99.90;;;;;;4997174;28;20844;-75
2022/04/14 09:40:02;;;;;;;19.03;12.93;;;25.70;99.90;;;;;;4996165;28;20998;-75
2022/04/14 09:42:30;;;;;;;20.87;14.97;;;24.50;99.90;;;;;;5000821;28;20530;-75
2022/04/14 09:45:18;;;;;;;23.03;15.27;;;24.00;99.90;;;;;;4989266;28;20540;-74
2022/04/14 09:47:45;;;;;;;25.03;16.43;;;24.70;99.90;;;;;;4990207;28;20489;-75
2022/04/14 09:50:27;;;;;;;18.80;14.03;;;25.40;99.90;;;;;;4990061;28;20465;-75
2022/04/14 09:52:59;;;;;;;22.43;14.73;;;26.30;99.90;;;;;;4990826;28;20459;-75
2022/04/14 09:55:26;;;;;;;18.20;14.40;;;25.60;99.90;;;;;;4994919;28;20478;-73
2022/04/14 09:58:13;;;;;;;18.40;14.30;;;26.20;99.90;;;;;;4998365;28;20508;-74
2022/04/14 10:00:43;;;;;;;20.27;14.33;;;27.20;99.90;;;;;;4995907;28;20517;-73
2022/04/14 10:03:12;;;;;;;19.37;14.43;;;27.40;99.70;;;;;;4992634;28;20578;-73
2022/04/14 10:05:39;;;;;;;23.90;15.33;;;27.40;99.10;;;;;;4993036;28;20465;-73
2022/04/14 10:08:08;;;;;;;19.93;15.07;;;27.40;98.50;;;;;;4995855;28;21030;-75
2022/04/14 10:10:35;;;;;;;22.53;16.87;;;27.90;98.50;;;;;;4987072;28;20462;-74
2022/04/14 10:13:05;;;;;;;22.30;15.50;;;27.40;98.00;;;;;;4993537;28;20469;-74
2022/04/14 10:15:32;;;;;;;14.57;12.80;;;26.00;99.10;;;;;;4995642;28;20457;-74
2022/04/14 10:18:04;;;;;;;19.47;15.60;;;25.90;99.80;;;;;;4989111;28;20988;-74
2022/04/14 10:20:31;;;;;;;26.50;16.60;;;26.40;99.20;;;;;;4989221;28;20465;-75
2022/04/14 10:22:59;;;;;;;13.93;11.10;;;26.10;99.00;;;;;;4993470;28;20892;-73
2022/04/14 10:25:26;;;;;;;15.70;11.47;;;25.70;98.10;;;;;;4991657;28;20509;-74
2022/04/14 10:27:54;;;;;;;13.50;10.13;;;25.70;98.10;;;;;;4997435;28;20542;-75
2022/04/14 10:30:21;;;;;;;10.43;8.57;;;24.40;97.00;;;;;;4995083;28;20957;-73
2022/04/14 10:32:48;;;;;;;8.70;6.63;;;23.70;97.80;;;;;;4992372;28;20539;-74
2022/04/14 10:35:16;;;;;;;11.50;8.10;;;22.80;97.10;;;;;;4996377;28;20494;-74
2022/04/14 10:37:45;;;;;;;8.50;7.23;;;22.30;99.60;;;;;;4995991;28;20523;-74
2022/04/14 10:40:13;;;;;;;13.20;8.20;;;23.60;99.70;;;;;;4994304;28;20469;-74
2022/04/14 10:42:47;;;;;;;19.03;11.67;;;25.10;96.80;;;;;;4990256;28;20504;-74
2022/04/14 10:45:17;;;;;;;15.70;9.90;;;25.40;96.60;;;;;;4996306;28;20508;-74
2022/04/14 10:47:55;;;;;;;16.93;10.60;;;26.30;96.00;;;;;;4993888;28;20844;-72
2022/04/14 10:50:26;;;;;;;13.30;9.57;;;26.70;93.60;;;;;;4989791;28;20776;-74
2022/04/14 10:53:07;;;;;;;15.53;9.70;;;27.00;92.70;;;;;;4995734;28;20489;-72
2022/04/14 10:55:41;;;;;;;13.47;10.00;;;27.30;92.30;;;;;;4993589;28;20666;-74
2022/04/14 10:58:28;;;;;;;11.93;9.67;;;27.60;93.60;;;;;;4993338;28;20467;-73
2022/04/14 11:00:55;;;;;;;13.97;10.77;;;28.30;92.80;;;;;;4986046;28;20544;-74
2022/04/14 11:03:45;;;;;;;18.23;9.00;;;27.80;91.40;;;;;;4992206;28;20464;-74
2022/04/14 11:06:48;;;;;;;8.63;7.10;;;26.80;91.90;;;;;;4991831;28;20841;-74
2022/04/14 11:09:44;;;;;;;11.80;6.47;;;25.00;92.90;;;;;;4992224;28;20454;-74
2022/04/14 11:12:12;;;;;;;11.07;7.07;;;24.20;94.50;;;;;;4989120;28;20540;-74
2022/04/14 11:14:45;;;;;;;9.47;5.93;;;23.50;95.30;;;;;;4991498;28;20480;-74
2022/04/14 11:17:58;;;;;;;7.50;6.60;;;23.30;96.40;;;;;;4992306;28;20532;-74
2022/04/14 11:20:58;;;;;;;7.47;4.27;;;23.60;95.80;;;;;;4989941;28;20497;-72
2022/04/14 11:23:35;;;;;;;7.53;5.77;;;23.80;96.20;;;;;;4990962;28;20473;-72
2022/04/14 11:26:09;;;;;;;5.80;4.20;;;23.20;96.20;;;;;;4989499;28;20457;-74
2022/04/14 11:28:38;;;;;;;7.13;4.50;;;23.20;97.90;;;;;;4992191;28;21233;-74
2022/04/14 11:31:22;;;;;;;5.83;4.80;;;24.70;96.30;;;;;;4994915;28;20465;-74
2022/04/14 11:33:50;;;;;;;8.07;4.50;;;25.70;93.50;;;;;;4994456;28;21531;-75
2022/04/14 11:36:18;;;;;;;5.37;4.30;;;26.00;94.50;;;;;;4993061;28;20470;-75
2022/04/14 11:38:54;;;;;;;5.10;4.53;;;26.30;91.70;;;;;;4989728;28;20998;-74
2022/04/14 11:41:39;;;;;;;4.67;4.00;;;26.90;91.60;;;;;;4986625;28;20462;-73
2022/04/14 11:44:08;;;;;;;4.53;4.13;;;26.70;91.10;;;;;;4994440;28;20693;-74
2022/04/14 11:46:37;;;;;;;8.67;4.07;;;26.20;91.00;;;;;;5002410;28;20491;-74
2022/04/14 11:49:04;;;;;;;6.07;4.30;;;25.80;91.30;;;;;;5003069;28;20939;-74
2022/04/14 11:51:31;;;;;;;4.70;3.90;;;26.70;90.70;;;;;;4999304;28;21016;-74
2022/04/14 11:53:59;;;;;;;4.77;4.33;;;27.50;88.80;;;;;;4996683;28;20485;-73
2022/04/14 11:56:26;;;;;;;7.80;6.90;;;27.00;87.70;;;;;;4998595;28;20470;-73
2022/04/14 11:58:54;;;;;;;5.70;4.57;;;26.10;88.40;;;;;;4994064;28;20466;-73
2022/04/14 12:01:21;;;;;;;5.40;4.00;;;25.90;89.00;;;;;;5001350;28;20466;-75
2022/04/14 12:03:47;;;;;;;3.77;3.07;;;26.10;90.20;;;;;;4982196;28;20576;-75
2022/04/14 12:06:16;;;;;;;6.23;3.67;;;26.90;90.00;;;;;;4993444;28;20802;-74
2022/04/14 12:08:43;;;;;;;4.50;3.80;;;27.10;86.60;;;;;;4998430;28;20491;-75
2022/04/14 12:11:17;;;;;;;5.90;3.80;;;27.60;84.70;;;;;;4995883;28;20544;-76
2022/04/14 12:13:44;;;;;;;4.77;3.70;;;28.00;80.90;;;;;;4993298;28;20496;-75
2022/04/14 12:16:12;;;;;;;5.53;3.50;;;27.70;82.70;;;;;;4992491;28;20559;-74
2022/04/14 12:18:40;;;;;;;4.40;3.43;;;27.30;83.50;;;;;;4997762;28;20979;-73
2022/04/14 12:21:07;;;;;;;4.43;3.87;;;26.00;83.60;;;;;;4999213;28;20961;-74
2022/04/14 12:23:34;;;;;;;3.40;3.10;;;25.80;88.40;;;;;;4996050;28;20494;-73
2022/04/14 12:26:03;;;;;;;4.10;3.40;;;25.90;86.20;;;;;;5000668;28;20797;-73
2022/04/14 12:28:31;;;;;;;3.60;3.30;;;26.10;87.70;;;;;;5004317;28;20925;-74
2022/04/14 12:31:10;;;;;;;4.90;3.80;;;26.00;86.10;;;;;;4990179;28;20853;-75
2022/04/14 12:33:36;;;;;;;3.73;3.43;;;25.60;87.20;;;;;;4990612;28;20910;-74
2022/04/14 12:36:07;;;;;;;7.13;3.40;;;24.50;86.60;;;;;;4995573;28;21137;-73
2022/04/14 12:38:43;;;;;;;5.27;3.43;;;24.10;90.50;;;;;;4987704;28;20559;-74
2022/04/14 12:41:15;;;;;;;4.87;3.93;;;23.20;91.50;;;;;;4992501;28;20535;-74
2022/04/14 12:43:45;;;;;;;3.30;2.70;;;22.60;92.70;;;;;;4990288;28;20484;-75
2022/04/14 12:46:22;;;;;;;3.60;2.77;;;21.90;92.20;;;;;;4990551;28;20553;-75
2022/04/14 12:49:00;;;;;;;5.00;2.30;;;21.90;93.30;;;;;;4988735;28;20503;-72
2022/04/14 12:51:32;;;;;;;3.23;2.53;;;21.80;92.40;;;;;;4997844;28;20521;-74
2022/04/14 12:53:59;;;;;;;2.83;2.60;;;22.30;93.10;;;;;;4989131;28;20548;-73
2022/04/14 12:56:26;;;;;;;3.47;2.53;;;23.70;92.50;;;;;;4988079;28;21062;-74
2022/04/14 12:59:13;;;;;;;5.73;2.37;;;25.20;91.00;;;;;;4989505;28;20458;-75
2022/04/14 13:01:51;;;;;;;7.20;3.73;;;25.80;84.40;;;;;;4986225;28;20461;-73
2022/04/14 13:04:19;;;;;;;4.50;2.40;;;26.30;82.50;;;;;;4973036;28;20485;-74
2022/04/14 13:07:03;;;;;;;2.97;2.60;;;26.50;83.30;;;;;;4987354;28;21073;-73
2022/04/14 13:09:31;;;;;;;3.63;3.00;;;26.30;81.40;;;;;;4982861;28;20499;-75
2022/04/14 13:11:58;;;;;;;2.93;2.53;;;26.90;82.40;;;;;;4983238;28;20503;-73
2022/04/14 13:14:27;;;;;;;3.10;2.80;;;27.00;81.50;;;;;;4985852;28;20759;-75
2022/04/14 13:16:56;;;;;;;6.30;2.73;;;26.90;78.70;;;;;;4989531;28;20513;-74
2022/04/14 13:19:23;;;;;;;5.17;3.30;;;27.00;79.20;;;;;;4989341;28;20986;-75
2022/04/14 13:21:50;;;;;;;8.03;2.53;;;27.20;77.00;;;;;;4992417;28;20470;-73
2022/04/14 13:24:17;;;;;;;6.20;3.70;;;27.50;77.40;;;;;;4995313;28;20496;-75
2022/04/14 13:26:44;;;;;;;6.50;3.27;;;28.30;74.60;;;;;;4993731;28;20461;-76
2022/04/14 13:29:11;;;;;;;5.37;3.53;;;28.20;74.10;;;;;;4988155;28;20478;-73
2022/04/14 13:31:39;;;;;;;3.70;3.30;;;27.40;76.30;;;;;;4979379;28;20466;-74
2022/04/14 13:34:06;;;;;;;3.63;3.20;;;27.30;77.00;;;;;;4992757;28;20505;-75
2022/04/14 13:36:33;;;;;;;5.27;3.63;;;27.20;77.20;;;;;;4995622;28;20462;-74